createdAt,value
2018-05-23T15:11:41.171Z,28.46
2018-05-23T15:14:14.011Z,28.82
2018-05-23T15:16:46.652Z,28.98
2018-05-23T15:19:19.236Z,29.24
2018-05-23T15:21:51.886Z,29.69
2018-05-23T15:24:24.491Z,28.36
2018-05-23T15:26:57.636Z,28.79
2018-05-23T15:29:30.668Z,28.94
2018-05-23T15:32:03.731Z,28.87
2018-05-23T15:34:36.382Z,29.14
2018-05-23T15:37:09.200Z,28.48
2018-05-23T15:39:41.842Z,28.31
2018-05-23T15:42:14.810Z,27.29
2018-05-23T15:44:47.458Z,24.71
2018-05-23T15:47:20.200Z,27.41
2018-05-23T15:49:53.284Z,27.93
2018-05-23T15:52:26.466Z,27.60
2018-05-23T15:54:59.140Z,26.14
2018-05-23T15:57:31.836Z,25.82
2018-05-23T16:00:05.155Z,25.02
2018-05-23T16:02:37.833Z,26.02
2018-05-23T16:05:10.625Z,23.86
2018-05-23T16:07:44.045Z,25.25
2018-05-23T16:10:16.809Z,25.65
2018-05-23T16:12:49.521Z,27.58
2018-05-23T16:15:22.574Z,28.44
2018-05-23T16:17:55.561Z,27.17
2018-05-23T16:20:28.552Z,26.36
2018-05-23T16:23:01.285Z,25.79
2018-05-23T16:25:33.979Z,24.12
2018-05-23T16:28:06.610Z,23.78
2018-05-23T16:30:39.280Z,24.46
2018-05-23T16:33:11.899Z,26.42
2018-05-23T16:35:44.618Z,29.16
2018-05-23T16:38:18.240Z,29.46
2018-05-23T16:40:52.801Z,30.63
2018-05-23T16:43:25.663Z,30.62
2018-05-23T16:45:58.580Z,30.69
2018-05-23T16:48:31.173Z,30.97
2018-05-23T16:51:04.041Z,31.19
2018-05-23T16:53:36.721Z,31.07
2018-05-23T16:56:09.431Z,31.17
2018-05-23T16:58:42.044Z,31.42
2018-05-23T17:01:14.926Z,32.36
2018-05-23T17:03:47.715Z,31.29
2018-05-23T17:06:20.636Z,31.43
2018-05-23T17:08:53.272Z,31.63
2018-05-23T17:11:26.043Z,31.30
2018-05-23T17:13:58.684Z,31.42
2018-05-23T17:16:31.338Z,31.87
2018-05-23T17:19:04.139Z,31.64
2018-05-23T17:21:37.385Z,32.16
2018-05-23T17:24:10.286Z,32.28
2018-05-23T17:26:43.361Z,32.84
2018-05-23T17:29:16.363Z,32.49
2018-05-23T17:31:49.603Z,32.68
2018-05-23T17:34:22.656Z,32.71
2018-05-23T17:36:55.933Z,32.94
2018-05-23T17:39:28.848Z,33.31
2018-05-23T17:42:01.665Z,32.33
2018-05-23T17:44:34.867Z,33.73
2018-05-23T17:47:07.539Z,33.58
2018-05-23T17:49:40.143Z,32.81
2018-05-23T17:52:12.845Z,33.22
2018-05-23T17:54:45.779Z,33.03
2018-05-23T17:57:18.759Z,33.02
2018-05-23T17:59:51.593Z,33.89
2018-05-23T18:02:25.061Z,34.18
2018-05-23T18:04:57.696Z,33.41
2018-05-23T18:07:30.367Z,32.75
2018-05-23T18:10:03.047Z,32.77
2018-05-23T18:12:35.913Z,33.86
2018-05-23T18:15:08.622Z,33.96
2018-05-23T18:17:41.416Z,33.30
2018-05-23T18:20:14.084Z,33.32
2018-05-23T18:22:47.048Z,33.75
2018-05-23T18:25:19.916Z,33.39
2018-05-23T18:27:53.456Z,33.10
2018-05-23T18:30:33.273Z,33.42
2018-05-23T18:33:06.006Z,33.52
2018-05-23T18:35:39.085Z,33.29
2018-05-23T18:38:11.899Z,33.39
2018-05-23T18:40:44.616Z,33.05
2018-05-23T18:43:17.488Z,34.43
2018-05-23T18:45:50.215Z,33.56
2018-05-23T18:48:22.983Z,34.37
2018-05-23T18:50:55.810Z,34.43
2018-05-23T18:53:28.468Z,34.12
2018-05-23T18:56:01.167Z,35.10
2018-05-23T18:58:33.858Z,35.04
2018-05-23T19:01:06.718Z,34.69
2018-05-23T19:03:39.364Z,35.15
2018-05-23T19:06:12.065Z,36.43
2018-05-23T19:08:44.756Z,35.49
2018-05-23T19:11:17.452Z,36.48
2018-05-23T19:13:50.483Z,36.82
2018-05-23T19:16:23.384Z,36.91
2018-05-23T19:18:56.158Z,37.21
2018-05-23T19:21:28.829Z,37.58
2018-05-23T19:24:01.660Z,37.20
2018-05-23T19:26:34.341Z,37.78
2018-05-23T19:29:06.968Z,38.22
2018-05-23T19:31:39.955Z,37.73
2018-05-23T19:34:12.800Z,38.59
2018-05-23T19:36:46.494Z,38.85
2018-05-23T19:39:14.141Z,39.63
2018-05-23T19:41:41.718Z,41.55
2018-05-23T19:44:09.229Z,42.33
2018-05-23T19:46:36.909Z,43.77
2018-05-23T19:49:04.676Z,44.61
2018-05-23T19:51:32.621Z,45.48
2018-05-23T19:54:00.313Z,46.54
2018-05-23T19:56:27.979Z,47.08
2018-05-23T19:58:55.561Z,47.84
2018-05-23T20:01:23.280Z,48.50
2018-05-23T20:03:50.808Z,48.78
2018-05-23T20:06:18.403Z,49.12
2018-05-23T20:08:45.938Z,49.36
2018-05-23T20:11:13.732Z,49.38
2018-05-23T20:13:41.423Z,50.00
2018-05-23T20:16:09.573Z,50.55
2018-05-23T20:18:37.150Z,51.25
2018-05-23T20:21:04.793Z,51.31
2018-05-23T20:23:32.342Z,51.72
2018-05-23T20:26:00.103Z,51.97
2018-05-23T20:28:28.672Z,52.59
2018-05-23T20:30:57.363Z,52.95
2018-05-23T20:33:25.964Z,52.92
2018-05-23T20:35:54.572Z,53.22
2018-05-23T20:38:23.304Z,53.74
2018-05-23T20:40:52.184Z,53.61
2018-05-23T20:43:20.876Z,53.83
2018-05-23T20:45:51.638Z,54.36
2018-05-23T20:48:20.848Z,54.48
2018-05-23T20:50:50.681Z,54.93
2018-05-23T20:53:19.366Z,55.36
2018-05-23T20:55:48.852Z,55.01
2018-05-23T20:58:17.683Z,55.21
2018-05-23T21:00:46.456Z,55.78
2018-05-23T21:03:15.120Z,55.62
2018-05-23T21:05:44.743Z,56.03
2018-05-23T21:08:14.228Z,56.06
2018-05-23T21:10:44.074Z,56.32
2018-05-23T21:13:13.683Z,56.11
2018-05-23T21:15:43.284Z,56.57
2018-05-23T21:18:12.692Z,57.26
2018-05-23T21:20:42.306Z,56.53
2018-05-23T21:23:11.995Z,56.75
2018-05-23T21:25:40.857Z,56.90
2018-05-23T21:28:09.552Z,57.73
2018-05-23T21:30:38.076Z,56.86
2018-05-23T21:33:06.944Z,56.55
2018-05-23T21:35:36.576Z,57.02
2018-05-23T21:38:06.036Z,56.95
2018-05-23T21:40:35.606Z,57.17
2018-05-23T21:43:05.056Z,57.21
2018-05-23T21:45:33.681Z,57.39
2018-05-23T21:48:02.475Z,57.34
2018-05-23T21:50:30.996Z,57.49
2018-05-23T21:52:59.470Z,57.59
2018-05-23T21:55:28.153Z,57.73
2018-05-23T21:57:56.813Z,57.77
2018-05-23T22:00:25.349Z,57.82
2018-05-23T22:02:53.972Z,57.55
2018-05-23T22:05:22.700Z,57.75
2018-05-23T22:07:51.336Z,58.47
2018-05-23T22:10:19.855Z,57.87
2018-05-23T22:12:49.391Z,58.16
2018-05-23T22:15:18.923Z,57.83
2018-05-23T22:17:51.915Z,58.25
2018-05-23T22:20:24.430Z,57.76
2018-05-23T22:22:53.850Z,58.77
2018-05-23T22:25:23.486Z,58.69
2018-05-23T22:27:52.935Z,58.13
2018-05-23T22:30:21.898Z,58.19
2018-05-23T22:32:50.987Z,58.36
2018-05-23T22:35:19.649Z,59.74
2018-05-23T22:37:48.467Z,58.93
2018-05-23T22:40:17.610Z,59.12
2018-05-23T22:42:47.102Z,58.57
2018-05-23T22:45:15.813Z,58.59
2018-05-23T22:47:45.352Z,59.32
2018-05-23T22:50:14.844Z,58.68
2018-05-23T22:52:44.658Z,59.24
2018-05-23T22:55:14.353Z,58.83
2018-05-23T22:57:43.959Z,58.89
2018-05-23T23:00:14.054Z,58.53
2018-05-23T23:02:42.791Z,59.30
2018-05-23T23:05:11.302Z,59.23
2018-05-23T23:07:43.018Z,58.94
2018-05-23T23:10:11.672Z,59.21
2018-05-23T23:12:40.328Z,58.90
2018-05-23T23:15:09.027Z,58.73
2018-05-23T23:17:37.529Z,59.17
2018-05-23T23:20:06.095Z,59.41
2018-05-23T23:22:39.221Z,59.30
2018-05-23T23:25:07.872Z,59.76
2018-05-23T23:27:36.767Z,59.63
2018-05-23T23:30:07.642Z,59.55
2018-05-23T23:32:37.908Z,59.54
2018-05-23T23:35:10.999Z,60.12
2018-05-23T23:37:39.875Z,59.17
2018-05-23T23:40:09.851Z,60.06
2018-05-23T23:42:40.032Z,59.82
2018-05-23T23:45:08.736Z,60.54
2018-05-23T23:47:38.408Z,60.62
2018-05-23T23:50:08.079Z,60.87
2018-05-23T23:52:37.000Z,60.52
2018-05-23T23:55:05.618Z,59.87
2018-05-23T23:57:34.291Z,59.56
